Time;durP1;ratioP1;P1;durP2;ratioP2;P2;SDS_P1;SDS_P2;PMS_P1;PMS_P2;Temp;Humidity;BMP_temperature;BMP_pressure;BME280_temperature;BME280_humidity;BME280_pressure;Samples;Min_cycle;Max_cycle;Signal;HPM_P1;HPM_P2
2022/06/11 00:01:59;;;;;;;12.05;6.20;;;;;;;;;;5167934;27;20073;-77
2022/06/11 00:04:44;;;;;;;12.55;6.50;;;;;;;;;;5157944;27;20058;-77
2022/06/11 00:07:12;;;;;;;14.30;6.80;;;;;;;;;;5163744;27;20112;-77
2022/06/11 00:09:38;;;;;;;9.60;5.72;;;;;;;;;;5146615;27;20046;-77
2022/06/11 00:12:06;;;;;;;12.73;6.53;;;;;;;;;;5146534;27;20134;-77
2022/06/11 00:14:33;;;;;;;11.18;6.38;;;;;;;;;;5151518;27;20206;-77
2022/06/11 00:17:00;;;;;;;10.85;6.00;;;;;;;;;;5167385;27;20086;-77
2022/06/11 00:19:27;;;;;;;14.80;6.15;;;;;;;;;;5168014;27;20076;-77
2022/06/11 00:21:54;;;;;;;12.88;6.38;;;;;;;;;;5147970;27;20206;-77
2022/06/11 00:24:22;;;;;;;13.57;6.93;;;;;;;;;;5158154;27;20150;-77
2022/06/11 00:26:48;;;;;;;12.38;6.95;;;;;;;;;;5188377;27;20050;-77
2022/06/11 00:29:15;;;;;;;15.05;7.90;;;;;;;;;;5179507;27;20058;-77
2022/06/11 00:31:42;;;;;;;15.38;7.85;;;;;;;;;;5147607;27;20553;-77
2022/06/11 00:34:09;;;;;;;14.07;7.32;;;;;;;;;;5126497;27;20508;-77
2022/06/11 00:36:36;;;;;;;12.95;7.50;;;;;;;;;;5127750;27;20968;-77
2022/06/11 00:39:04;;;;;;;13.43;7.45;;;;;;;;;;5146657;27;20047;-77
2022/06/11 00:41:30;;;;;;;15.60;6.72;;;;;;;;;;5163100;27;20509;-77
2022/06/11 00:43:57;;;;;;;13.07;6.65;;;;;;;;;;5128826;27;20051;-77
2022/06/11 00:46:38;;;;;;;11.70;6.38;;;;;;;;;;5146527;27;20116;-77
2022/06/11 00:49:11;;;;;;;14.57;6.40;;;;;;;;;;5148608;27;20053;-77
2022/06/11 00:51:38;;;;;;;13.75;6.03;;;;;;;;;;5153553;27;20131;-77
2022/06/11 00:54:07;;;;;;;12.68;6.38;;;;;;;;;;5127113;27;20050;-77
2022/06/11 00:56:37;;;;;;;13.02;6.47;;;;;;;;;;5126663;27;20063;-77
2022/06/11 00:59:06;;;;;;;13.30;6.20;;;;;;;;;;5127302;27;20138;-77
2022/06/11 01:01:33;;;;;;;10.82;4.85;;;;;;;;;;5144681;27;20526;-76
2022/06/11 01:04:00;;;;;;;11.07;5.60;;;;;;;;;;5149914;27;20420;-77
2022/06/11 01:06:36;;;;;;;10.20;5.88;;;;;;;;;;5144937;27;20089;-77
2022/06/11 01:09:11;;;;;;;9.35;5.07;;;;;;;;;;5165441;27;20046;-77
2022/06/11 01:11:49;;;;;;;11.38;5.50;;;;;;;;;;5141455;27;20540;-77
2022/06/11 01:14:28;;;;;;;9.85;5.38;;;;;;;;;;5149473;27;20062;-77
2022/06/11 01:16:57;;;;;;;13.38;5.75;;;;;;;;;;5165576;27;20137;-77
2022/06/11 01:19:42;;;;;;;9.82;5.45;;;;;;;;;;5142637;27;20059;-77
2022/06/11 01:22:15;;;;;;;11.13;5.13;;;;;;;;;;5125010;27;20142;-77
2022/06/11 01:25:00;;;;;;;8.73;5.22;;;;;;;;;;5134979;27;20050;-77
2022/06/11 01:27:50;;;;;;;9.23;5.05;;;;;;;;;;5145761;27;20047;-77
2022/06/11 01:30:19;;;;;;;11.48;5.70;;;;;;;;;;5092486;27;20055;-77
2022/06/11 01:33:07;;;;;;;12.63;5.05;;;;;;;;;;5159340;27;20171;-77
2022/06/11 01:35:41;;;;;;;11.93;5.47;;;;;;;;;;5142349;27;20108;-76
2022/06/11 01:38:23;;;;;;;9.10;4.50;;;;;;;;;;5145346;27;20134;-76
2022/06/11 01:40:49;;;;;;;9.55;4.78;;;;;;;;;;5145623;27;20138;-76
2022/06/11 01:43:15;;;;;;;10.13;5.05;;;;;;;;;;5161758;27;20134;-77
2022/06/11 01:45:42;;;;;;;8.13;4.30;;;;;;;;;;5153501;27;20058;-76
2022/06/11 01:48:14;;;;;;;9.48;4.35;;;;;;;;;;5147508;27;20062;-78
2022/06/11 01:50:43;;;;;;;7.65;4.35;;;;;;;;;;5150642;27;20090;-78
2022/06/11 01:53:19;;;;;;;8.82;3.97;;;;;;;;;;5162691;27;20049;-78
2022/06/11 01:55:56;;;;;;;9.30;3.90;;;;;;;;;;5158549;27;20059;-78
2022/06/11 01:58:29;;;;;;;8.40;4.10;;;;;;;;;;5165213;27;20054;-78
2022/06/11 02:01:04;;;;;;;9.48;3.83;;;;;;;;;;5142803;27;20142;-78
2022/06/11 02:03:42;;;;;;;10.95;4.32;;;;;;;;;;5144491;27;20123;-78
2022/06/11 02:06:08;;;;;;;9.32;4.38;;;;;;;;;;5129274;27;20061;-78
2022/06/11 02:08:53;;;;;;;9.57;3.65;;;;;;;;;;5126718;27;20057;-77
2022/06/11 02:11:29;;;;;;;8.65;4.07;;;;;;;;;;5125907;27;20130;-77
2022/06/11 02:14:25;;;;;;;11.02;4.22;;;;;;;;;;5149715;27;20150;-77
2022/06/11 02:16:57;;;;;;;10.52;4.25;;;;;;;;;;5126728;27;20574;-78
2022/06/11 02:19:26;;;;;;;9.07;4.03;;;;;;;;;;5143542;27;20053;-77
2022/06/11 02:21:55;;;;;;;9.05;4.07;;;;;;;;;;5146986;27;20134;-78
2022/06/11 02:24:32;;;;;;;11.43;4.25;;;;;;;;;;5169447;27;20062;-78
2022/06/11 02:27:01;;;;;;;8.05;4.20;;;;;;;;;;5164404;27;20055;-78
2022/06/11 02:29:31;;;;;;;10.52;3.90;;;;;;;;;;5129861;27;20067;-78
2022/06/11 02:32:01;;;;;;;11.13;4.57;;;;;;;;;;5165443;27;20057;-77
2022/06/11 02:34:28;;;;;;;10.68;3.90;;;;;;;;;;5155160;27;20066;-78
2022/06/11 02:36:57;;;;;;;9.93;4.18;;;;;;;;;;5129522;27;20126;-77
2022/06/11 02:39:24;;;;;;;12.35;4.43;;;;;;;;;;5151544;27;20055;-77
2022/06/11 02:41:51;;;;;;;8.77;4.55;;;;;;;;;;5160206;27;20509;-77
2022/06/11 02:44:17;;;;;;;9.23;4.15;;;;;;;;;;5168801;27;20116;-78
2022/06/11 02:46:43;;;;;;;9.35;4.40;;;;;;;;;;5169144;27;20137;-77
2022/06/11 02:49:19;;;;;;;9.10;4.43;;;;;;;;;;5130250;27;20053;-78
2022/06/11 02:51:46;;;;;;;7.05;3.97;;;;;;;;;;5159391;27;20053;-77
2022/06/11 02:54:13;;;;;;;9.13;3.92;;;;;;;;;;5138893;27;20476;-77
2022/06/11 02:56:40;;;;;;;8.25;3.60;;;;;;;;;;5129425;27;20521;-77
2022/06/11 02:59:06;;;;;;;8.15;3.92;;;;;;;;;;5147832;27;20059;-77
2022/06/11 03:01:34;;;;;;;8.73;4.28;;;;;;;;;;5128936;27;20043;-77
2022/06/11 03:04:01;;;;;;;12.05;3.97;;;;;;;;;;5167899;27;20074;-78
2022/06/11 03:06:28;;;;;;;8.63;3.38;;;;;;;;;;5140009;27;20524;-77
2022/06/11 03:08:55;;;;;;;8.57;3.65;;;;;;;;;;5146544;27;20056;-77
2022/06/11 03:11:21;;;;;;;9.13;3.28;;;;;;;;;;5145435;27;20525;-77
2022/06/11 03:13:47;;;;;;;7.35;3.00;;;;;;;;;;5165034;27;20145;-78
2022/06/11 03:16:14;;;;;;;7.18;2.95;;;;;;;;;;5150376;27;21094;-77
2022/06/11 03:18:41;;;;;;;13.57;3.22;;;;;;;;;;5135158;27;20058;-77
2022/06/11 03:21:07;;;;;;;9.32;2.75;;;;;;;;;;5152785;27;20050;-77
2022/06/11 03:23:34;;;;;;;10.48;2.72;;;;;;;;;;5165587;27;20046;-77
2022/06/11 03:26:01;;;;;;;10.82;2.92;;;;;;;;;;5141682;27;20474;-77
2022/06/11 03:28:28;;;;;;;10.38;3.15;;;;;;;;;;5134556;27;20078;-77
2022/06/11 03:30:55;;;;;;;8.98;2.30;;;;;;;;;;5128515;27;20055;-77
2022/06/11 03:33:24;;;;;;;12.35;2.70;;;;;;;;;;5159812;27;20057;-77
2022/06/11 03:35:51;;;;;;;8.30;2.58;;;;;;;;;;5133922;27;20077;-78
2022/06/11 03:38:18;;;;;;;8.57;2.38;;;;;;;;;;5139503;27;20065;-77
2022/06/11 03:40:45;;;;;;;6.97;2.33;;;;;;;;;;5137229;27;20051;-78
2022/06/11 03:43:12;;;;;;;10.32;2.30;;;;;;;;;;5164116;27;20082;-77
2022/06/11 03:45:38;;;;;;;7.45;2.35;;;;;;;;;;5143287;27;20145;-77
2022/06/11 03:48:05;;;;;;;12.05;2.45;;;;;;;;;;5147518;27;20053;-77
2022/06/11 03:50:33;;;;;;;7.45;2.40;;;;;;;;;;5166339;27;20055;-78
2022/06/11 03:53:00;;;;;;;7.75;2.53;;;;;;;;;;5146129;27;20058;-77
2022/06/11 03:55:27;;;;;;;9.23;2.30;;;;;;;;;;5148354;27;20134;-77
2022/06/11 03:57:55;;;;;;;6.95;2.50;;;;;;;;;;5142943;27;20061;-77
2022/06/11 04:03:09;;;;;;;11.25;2.72;;;;;;;;;;5164177;27;20053;-77
2022/06/11 04:05:36;;;;;;;6.82;2.58;;;;;;;;;;5130330;27;20059;-77
2022/06/11 04:08:03;;;;;;;7.30;2.60;;;;;;;;;;5144712;27;20051;-77
2022/06/11 04:10:30;;;;;;;11.32;2.35;;;;;;;;;;5165211;27;20133;-77
2022/06/11 04:12:57;;;;;;;9.63;2.58;;;;;;;;;;5163703;27;21317;-77
2022/06/11 04:15:23;;;;;;;10.20;2.85;;;;;;;;;;5147811;27;20054;-77
2022/06/11 04:17:50;;;;;;;9.77;2.47;;;;;;;;;;5165012;27;20597;-77
2022/06/11 04:20:16;;;;;;;11.77;2.50;;;;;;;;;;5162708;27;20058;-77
2022/06/11 04:22:43;;;;;;;8.70;2.67;;;;;;;;;;5167676;27;20051;-77
2022/06/11 04:25:14;;;;;;;10.10;2.17;;;;;;;;;;5177989;27;20054;-77
2022/06/11 04:27:41;;;;;;;12.05;2.72;;;;;;;;;;5147719;27;20069;-78
2022/06/11 04:30:08;;;;;;;11.48;2.55;;;;;;;;;;5148887;27;20058;-77
2022/06/11 04:32:34;;;;;;;15.25;2.72;;;;;;;;;;5165294;27;20410;-78
2022/06/11 04:35:01;;;;;;;10.23;2.60;;;;;;;;;;5165422;27;20134;-77
2022/06/11 04:37:29;;;;;;;12.57;2.90;;;;;;;;;;5153387;27;20050;-77
2022/06/11 04:39:56;;;;;;;10.00;2.97;;;;;;;;;;5161776;27;20063;-78
2022/06/11 04:42:24;;;;;;;14.18;3.40;;;;;;;;;;5127673;27;20094;-77
2022/06/11 04:44:50;;;;;;;6.90;2.38;;;;;;;;;;5139663;27;20942;-77
2022/06/11 04:47:21;;;;;;;12.02;2.63;;;;;;;;;;5145385;27;20497;-77
2022/06/11 04:49:47;;;;;;;;;;;;;;;;;;5163125;27;20065;-77
2022/06/11 04:52:13;;;;;;;12.52;2.78;;;;;;;;;;5166545;27;45238;-78
2022/06/11 04:54:40;;;;;;;13.32;2.88;;;;;;;;;;5146025;27;20047;-77
2022/06/11 04:57:07;;;;;;;11.82;2.70;;;;;;;;;;5129480;27;20082;-77
2022/06/11 04:59:33;;;;;;;11.30;2.88;;;;;;;;;;5142896;27;20051;-77
2022/06/11 05:02:00;;;;;;;14.15;2.78;;;;;;;;;;5130036;27;20051;-77
2022/06/11 05:04:27;;;;;;;12.73;2.58;;;;;;;;;;5127519;27;20051;-78
2022/06/11 05:06:54;;;;;;;10.90;2.55;;;;;;;;;;5162549;27;20055;-77
2022/06/11 05:09:21;;;;;;;13.07;2.95;;;;;;;;;;5160504;27;20134;-77
2022/06/11 05:11:48;;;;;;;13.30;3.05;;;;;;;;;;5160420;27;20118;-78
2022/06/11 05:14:14;;;;;;;12.73;2.95;;;;;;;;;;5127793;27;20058;-77
2022/06/11 05:16:42;;;;;;;11.90;3.10;;;;;;;;;;5161620;27;20057;-78
2022/06/11 05:19:10;;;;;;;14.07;2.75;;;;;;;;;;5163890;27;20115;-77
2022/06/11 05:21:37;;;;;;;14.80;2.83;;;;;;;;;;5147936;27;20062;-77
2022/06/11 05:24:03;;;;;;;13.18;2.75;;;;;;;;;;5134799;27;20058;-77
2022/06/11 05:26:33;;;;;;;19.60;3.78;;;;;;;;;;5187605;27;20055;-78
2022/06/11 05:29:00;;;;;;;17.67;3.47;;;;;;;;;;5147666;27;20052;-77
2022/06/11 05:31:26;;;;;;;13.80;3.45;;;;;;;;;;5147777;27;20054;-77
2022/06/11 05:33:53;;;;;;;19.40;3.60;;;;;;;;;;5136992;27;20615;-77
2022/06/11 05:36:20;;;;;;;16.88;2.90;;;;;;;;;;5161382;27;20142;-77
2022/06/11 05:38:46;;;;;;;16.92;3.63;;;;;;;;;;5148164;27;20570;-77
2022/06/11 05:41:13;;;;;;;13.57;3.35;;;;;;;;;;5147511;27;20082;-77
2022/06/11 05:43:39;;;;;;;13.60;2.88;;;;;;;;;;5129214;27;20055;-77
2022/06/11 05:46:12;;;;;;;14.88;2.78;;;;;;;;;;5159372;27;21106;-78
2022/06/11 05:48:43;;;;;;;18.92;3.67;;;;;;;;;;5142105;27;20047;-78
2022/06/11 05:51:18;;;;;;;19.67;3.47;;;;;;;;;;5168532;27;20058;-78
2022/06/11 05:53:47;;;;;;;16.25;3.15;;;;;;;;;;5160558;27;20059;-78
2022/06/11 05:56:14;;;;;;;15.23;3.53;;;;;;;;;;5166336;27;20082;-78
2022/06/11 05:58:47;;;;;;;16.15;3.65;;;;;;;;;;5147961;27;20059;-78
2022/06/11 06:01:18;;;;;;;14.90;3.63;;;;;;;;;;5145439;27;20631;-78
2022/06/11 06:03:45;;;;;;;20.95;3.58;;;;;;;;;;5153523;27;20096;-78
2022/06/11 06:06:11;;;;;;;15.13;3.25;;;;;;;;;;5135810;27;20968;-77
2022/06/11 06:08:38;;;;;;;17.77;3.42;;;;;;;;;;5150398;27;20124;-77
2022/06/11 06:11:04;;;;;;;22.08;3.33;;;;;;;;;;5155506;27;20051;-78
2022/06/11 06:13:50;;;;;;;20.58;3.47;;;;;;;;;;5154404;27;20521;-78
2022/06/11 06:16:17;;;;;;;15.43;3.40;;;;;;;;;;5144932;27;20143;-78
2022/06/11 06:18:44;;;;;;;22.08;3.65;;;;;;;;;;5129516;27;20047;-78
2022/06/11 06:21:11;;;;;;;18.63;3.05;;;;;;;;;;5144226;27;20138;-78
2022/06/11 06:23:38;;;;;;;18.92;3.70;;;;;;;;;;5130728;27;20054;-78
2022/06/11 06:26:04;;;;;;;17.55;3.20;;;;;;;;;;5165751;27;20096;-78
2022/06/11 06:28:34;;;;;;;19.38;3.70;;;;;;;;;;5168047;27;20129;-78
2022/06/11 06:31:02;;;;;;;14.45;3.22;;;;;;;;;;5151193;27;20079;-78
2022/06/11 06:33:30;;;;;;;19.13;3.17;;;;;;;;;;5150034;27;20051;-78
2022/06/11 06:36:00;;;;;;;16.60;3.30;;;;;;;;;;5149948;27;20039;-79
2022/06/11 06:38:27;;;;;;;;;;;;;;;;;;5164073;27;20055;-78
2022/06/11 06:40:53;;;;;;;15.38;3.40;;;;;;;;;;5157041;27;45212;-78
2022/06/11 06:43:20;;;;;;;18.20;3.38;;;;;;;;;;5132307;27;20054;-78
2022/06/11 06:45:47;;;;;;;18.42;2.90;;;;;;;;;;5132906;27;20116;-78
2022/06/11 06:48:14;;;;;;;17.50;2.83;;;;;;;;;;5146424;27;20501;-79
2022/06/11 06:50:40;;;;;;;16.13;3.15;;;;;;;;;;5128273;27;20057;-78
2022/06/11 06:53:06;;;;;;;19.45;4.00;;;;;;;;;;5157302;27;20057;-78
2022/06/11 06:55:33;;;;;;;17.00;3.42;;;;;;;;;;5166891;27;20123;-78
2022/06/11 06:58:00;;;;;;;20.70;3.20;;;;;;;;;;5145434;27;20158;-78
2022/06/11 07:00:26;;;;;;;15.35;3.35;;;;;;;;;;5135262;27;20059;-78
2022/06/11 07:02:53;;;;;;;16.60;3.40;;;;;;;;;;5134877;27;20100;-78
2022/06/11 07:05:21;;;;;;;15.63;3.25;;;;;;;;;;5126484;27;20145;-78
2022/06/11 07:07:48;;;;;;;17.30;3.78;;;;;;;;;;5145711;27;20061;-78
2022/06/11 07:10:15;;;;;;;15.45;3.20;;;;;;;;;;5145846;27;20947;-78
2022/06/11 07:12:41;;;;;;;16.35;3.72;;;;;;;;;;5143532;27;20141;-78
2022/06/11 07:15:08;;;;;;;14.05;2.72;;;;;;;;;;5134918;27;20090;-78
2022/06/11 07:17:37;;;;;;;14.95;2.42;;;;;;;;;;5157285;27;20574;-78
2022/06/11 07:20:06;;;;;;;21.27;3.50;;;;;;;;;;5162819;27;20169;-78
2022/06/11 07:22:37;;;;;;;18.45;3.40;;;;;;;;;;5160291;27;20065;-78
2022/06/11 07:25:04;;;;;;;14.95;3.40;;;;;;;;;;5157759;27;20542;-78
2022/06/11 07:27:32;;;;;;;20.50;3.58;;;;;;;;;;5168655;27;20075;-78
2022/06/11 07:30:03;;;;;;;13.90;2.83;;;;;;;;;;5136867;27;20142;-78
2022/06/11 07:32:35;;;;;;;19.77;3.38;;;;;;;;;;5165847;27;20158;-78
2022/06/11 07:35:02;;;;;;;13.38;2.88;;;;;;;;;;5138829;27;20104;-78
2022/06/11 07:37:29;;;;;;;13.73;2.97;;;;;;;;;;5147448;27;20061;-78
2022/06/11 07:39:55;;;;;;;18.65;2.80;;;;;;;;;;5160033;27;20142;-78
2022/06/11 07:42:21;;;;;;;12.40;2.53;;;;;;;;;;5151908;27;20055;-78
2022/06/11 07:44:48;;;;;;;13.63;3.17;;;;;;;;;;5163594;27;20050;-78
2022/06/11 07:47:14;;;;;;;10.80;2.60;;;;;;;;;;5169436;27;20051;-78
2022/06/11 07:49:40;;;;;;;13.30;2.70;;;;;;;;;;5142775;27;20504;-78
2022/06/11 07:52:07;;;;;;;12.70;2.88;;;;;;;;;;5139118;27;20147;-78
2022/06/11 07:54:33;;;;;;;14.50;2.80;;;;;;;;;;5130960;27;20055;-78
2022/06/11 07:57:00;;;;;;;17.73;2.80;;;;;;;;;;5171935;27;20133;-78
2022/06/11 07:59:32;;;;;;;9.95;2.63;;;;;;;;;;5162748;27;20058;-78
2022/06/11 08:01:58;;;;;;;13.23;2.83;;;;;;;;;;5154911;27;20943;-78
2022/06/11 08:04:25;;;;;;;14.40;2.55;;;;;;;;;;5154295;27;20505;-78
2022/06/11 08:06:51;;;;;;;14.77;2.70;;;;;;;;;;5149897;27;20137;-78
2022/06/11 08:09:18;;;;;;;10.73;2.40;;;;;;;;;;5124746;27;21825;-78
2022/06/11 08:11:44;;;;;;;13.75;2.72;;;;;;;;;;5154935;27;20051;-78
2022/06/11 08:14:10;;;;;;;8.77;2.05;;;;;;;;;;5136654;27;20051;-78
2022/06/11 08:16:37;;;;;;;10.90;2.67;;;;;;;;;;5143535;27;20051;-78
2022/06/11 08:19:03;;;;;;;12.50;2.47;;;;;;;;;;5154306;27;20051;-78
2022/06/11 08:21:29;;;;;;;15.07;3.15;;;;;;;;;;5146032;27;20528;-78
2022/06/11 08:23:56;;;;;;;10.20;2.45;;;;;;;;;;5150519;27;20131;-78
2022/06/11 08:26:22;;;;;;;11.63;2.42;;;;;;;;;;5178517;27;20074;-78
2022/06/11 08:28:48;;;;;;;12.52;2.72;;;;;;;;;;5154353;27;20522;-78
2022/06/11 08:31:15;;;;;;;17.05;3.10;;;;;;;;;;5137113;27;20058;-78
2022/06/11 08:33:41;;;;;;;12.40;2.72;;;;;;;;;;5150021;27;20059;-78
2022/06/11 08:36:07;;;;;;;12.27;3.08;;;;;;;;;;5145263;27;21015;-79
2022/06/11 08:38:34;;;;;;;11.07;2.78;;;;;;;;;;5162109;27;20061;-78
2022/06/11 08:41:00;;;;;;;11.02;2.58;;;;;;;;;;5139832;27;20130;-78
2022/06/11 08:43:28;;;;;;;11.35;2.95;;;;;;;;;;5139956;27;20051;-78
2022/06/11 08:46:00;;;;;;;13.00;2.75;;;;;;;;;;5147941;27;20566;-78
2022/06/11 08:48:35;;;;;;;14.48;2.75;;;;;;;;;;5150208;27;20054;-81
2022/06/11 08:51:14;;;;;;;12.73;2.35;;;;;;;;;;5162367;27;20080;-79
2022/06/11 08:53:40;;;;;;;14.73;3.05;;;;;;;;;;5140172;27;20051;-78
2022/06/11 08:56:13;;;;;;;12.13;2.50;;;;;;;;;;5156482;27;20055;-82
2022/06/11 08:58:44;;;;;;;15.38;3.00;;;;;;;;;;5149150;27;20564;-79
2022/06/11 09:01:25;;;;;;;16.05;2.92;;;;;;;;;;5137810;27;20086;-79
2022/06/11 09:04:18;;;;;;;14.10;2.70;;;;;;;;;;5171681;27;20066;-79
2022/06/11 09:06:50;;;;;;;12.15;2.60;;;;;;;;;;5119546;27;20472;-79
2022/06/11 09:09:38;;;;;;;14.80;2.72;;;;;;;;;;5161246;27;20043;-79
2022/06/11 09:12:07;;;;;;;10.43;2.60;;;;;;;;;;5156617;27;20899;-79
2022/06/11 09:14:49;;;;;;;13.05;2.97;;;;;;;;;;5132571;27;20049;-79
2022/06/11 09:17:27;;;;;;;11.48;2.60;;;;;;;;;;5147278;27;20565;-79
2022/06/11 09:20:00;;;;;;;11.63;2.85;;;;;;;;;;5150127;27;22980;-79
2022/06/11 09:22:42;;;;;;;12.65;3.20;;;;;;;;;;5148312;27;20858;-79
2022/06/11 09:25:20;;;;;;;10.50;2.92;;;;;;;;;;5137221;27;20046;-79
2022/06/11 09:28:07;;;;;;;12.73;3.10;;;;;;;;;;5130471;27;20090;-79
2022/06/11 09:30:39;;;;;;;19.00;2.88;;;;;;;;;;5134879;27;20460;-79
2022/06/11 09:33:11;;;;;;;10.63;2.80;;;;;;;;;;5143904;27;20055;-79
2022/06/11 09:35:45;;;;;;;16.08;2.83;;;;;;;;;;5160588;27;20054;-79
2022/06/11 09:38:41;;;;;;;12.35;2.88;;;;;;;;;;5171177;27;20488;-79
2022/06/11 09:41:30;;;;;;;14.20;3.03;;;;;;;;;;5131195;27;20059;-79
2022/06/11 09:43:57;;;;;;;;;;;;;;;;;;5130439;27;20055;-79
2022/06/11 09:46:41;;;;;;;16.90;3.15;;;;;;;;;;5139175;27;44758;-79
2022/06/11 09:49:08;;;;;;;15.23;3.45;;;;;;;;;;5142550;27;20050;-79
2022/06/11 09:51:41;;;;;;;13.85;3.50;;;;;;;;;;5143563;27;20070;-79
2022/06/11 09:54:24;;;;;;;10.98;2.97;;;;;;;;;;5124902;27;20142;-78
2022/06/11 09:56:50;;;;;;;12.50;2.97;;;;;;;;;;5144237;27;20063;-78
2022/06/11 09:59:31;;;;;;;13.40;2.72;;;;;;;;;;5147961;27;20107;-78
2022/06/11 10:02:01;;;;;;;12.60;2.80;;;;;;;;;;5141503;27;20138;-78
2022/06/11 10:04:30;;;;;;;12.02;2.83;;;;;;;;;;5146696;27;20066;-78
2022/06/11 10:06:57;;;;;;;11.67;3.20;;;;;;;;;;5127198;27;20490;-78
2022/06/11 10:09:24;;;;;;;15.43;3.17;;;;;;;;;;5134495;27;20273;-78
2022/06/11 10:12:16;;;;;;;16.65;3.25;;;;;;;;;;5162046;27;20626;-78
2022/06/11 10:14:43;;;;;;;14.93;3.05;;;;;;;;;;5113773;27;20112;-78
2022/06/11 10:17:35;;;;;;;11.95;3.05;;;;;;;;;;5145877;27;20074;-76
2022/06/11 10:20:20;;;;;;;13.18;2.80;;;;;;;;;;5125137;27;20047;-76
2022/06/11 10:22:57;;;;;;;11.68;2.95;;;;;;;;;;5143483;27;20126;-76
2022/06/11 10:25:39;;;;;;;14.60;2.78;;;;;;;;;;5171827;27;20066;-76
2022/06/11 10:28:31;;;;;;;14.65;3.20;;;;;;;;;;5186812;27;20046;-76
2022/06/11 10:31:06;;;;;;;12.88;3.47;;;;;;;;;;5139737;27;20105;-76
2022/06/11 10:33:44;;;;;;;13.88;3.40;;;;;;;;;;5129504;27;20054;-76
2022/06/11 10:36:14;;;;;;;13.25;3.40;;;;;;;;;;5158990;27;20130;-76
2022/06/11 10:38:50;;;;;;;13.73;2.85;;;;;;;;;;5143229;27;20116;-76
2022/06/11 10:41:20;;;;;;;11.70;3.13;;;;;;;;;;5144286;27;20049;-76
2022/06/11 10:43:49;;;;;;;11.70;2.80;;;;;;;;;;5144331;27;20170;-76
2022/06/11 10:46:16;;;;;;;13.65;2.95;;;;;;;;;;5142590;27;20090;-76
2022/06/11 10:48:42;;;;;;;14.45;3.15;;;;;;;;;;5140878;27;20148;-76
2022/06/11 10:51:14;;;;;;;11.65;2.90;;;;;;;;;;5123097;27;20138;-76
2022/06/11 10:53:52;;;;;;;13.75;2.72;;;;;;;;;;5161726;27;20091;-76
2022/06/11 10:56:26;;;;;;;14.50;3.15;;;;;;;;;;5146809;27;21094;-76
2022/06/11 10:58:58;;;;;;;13.80;2.60;;;;;;;;;;5129498;27;20054;-76
2022/06/11 11:01:29;;;;;;;14.48;2.90;;;;;;;;;;5156779;27;20134;-76
2022/06/11 11:04:13;;;;;;;12.05;2.53;;;;;;;;;;5169591;27;20064;-76
2022/06/11 11:06:41;;;;;;;11.90;2.90;;;;;;;;;;5154597;27;20067;-76
2022/06/11 11:09:11;;;;;;;13.70;3.00;;;;;;;;;;5152380;27;20538;-78
2022/06/11 11:11:49;;;;;;;12.23;2.80;;;;;;;;;;5149044;27;20084;-79
2022/06/11 11:14:18;;;;;;;14.68;2.92;;;;;;;;;;5147378;27;20841;-75
2022/06/11 11:16:48;;;;;;;11.10;2.58;;;;;;;;;;5145359;27;20527;-76
2022/06/11 11:19:15;;;;;;;11.55;2.75;;;;;;;;;;5128318;27;20051;-77
2022/06/11 11:21:49;;;;;;;10.57;2.47;;;;;;;;;;5146663;27;20053;-77
2022/06/11 11:24:18;;;;;;;11.35;2.83;;;;;;;;;;5132764;27;20543;-77
2022/06/11 11:26:59;;;;;;;12.25;2.58;;;;;;;;;;5140659;27;20062;-77
2022/06/11 11:29:52;;;;;;;12.98;2.92;;;;;;;;;;5147099;27;20122;-77
2022/06/11 11:32:27;;;;;;;13.30;2.78;;;;;;;;;;5152254;27;20617;-77
2022/06/11 11:34:54;;;;;;;12.48;2.60;;;;;;;;;;5168450;27;20451;-77
2022/06/11 11:37:20;;;;;;;12.65;2.75;;;;;;;;;;5143200;27;20161;-77
2022/06/11 11:39:51;;;;;;;11.98;2.42;;;;;;;;;;5145433;27;20075;-77
2022/06/11 11:42:18;;;;;;;13.07;3.15;;;;;;;;;;5147454;27;20134;-77
2022/06/11 11:44:49;;;;;;;14.73;3.30;;;;;;;;;;5165542;27;20047;-77
2022/06/11 11:47:22;;;;;;;14.43;2.92;;;;;;;;;;5168917;27;20075;-77
2022/06/11 11:49:51;;;;;;;11.93;2.80;;;;;;;;;;5157225;27;20061;-78
2022/06/11 11:52:18;;;;;;;16.25;2.90;;;;;;;;;;5145781;27;20079;-77
2022/06/11 11:54:54;;;;;;;12.95;2.35;;;;;;;;;;5147131;27;20067;-77
2022/06/11 11:57:22;;;;;;;13.23;2.58;;;;;;;;;;5128694;27;20521;-77
2022/06/11 11:59:52;;;;;;;9.00;2.33;;;;;;;;;;5147628;27;20202;-77
2022/06/11 12:02:25;;;;;;;16.33;2.92;;;;;;;;;;5167459;27;20072;-77
2022/06/11 12:04:54;;;;;;;11.00;2.50;;;;;;;;;;5163821;27;20225;-76
2022/06/11 12:07:29;;;;;;;10.98;2.50;;;;;;;;;;5148928;27;20141;-77
2022/06/11 12:09:56;;;;;;;12.82;2.53;;;;;;;;;;5151445;27;20421;-78
2022/06/11 12:12:28;;;;;;;12.55;2.78;;;;;;;;;;5146600;27;20085;-77
2022/06/11 12:15:01;;;;;;;12.80;2.53;;;;;;;;;;5125534;27;20054;-77
2022/06/11 12:17:36;;;;;;;10.77;2.50;;;;;;;;;;5156950;27;20133;-77
2022/06/11 12:20:07;;;;;;;14.10;2.50;;;;;;;;;;5143997;27;20076;-77
2022/06/11 12:22:39;;;;;;;11.35;2.53;;;;;;;;;;5148575;27;20051;-77
2022/06/11 12:25:19;;;;;;;10.60;2.38;;;;;;;;;;5179145;27;20103;-77
2022/06/11 12:27:48;;;;;;;11.52;2.70;;;;;;;;;;5166582;27;20054;-77
2022/06/11 12:30:27;;;;;;;13.23;3.10;;;;;;;;;;5159846;27;20146;-77
2022/06/11 12:32:53;;;;;;;12.38;2.70;;;;;;;;;;5167740;27;20054;-77
2022/06/11 12:35:25;;;;;;;11.65;2.13;;;;;;;;;;5164463;27;20050;-77
2022/06/11 12:38:06;;;;;;;11.05;2.45;;;;;;;;;;5137735;27;20051;-77
2022/06/11 12:40:57;;;;;;;8.82;2.40;;;;;;;;;;5144412;27;20062;-77
2022/06/11 12:43:36;;;;;;;13.88;2.78;;;;;;;;;;5145776;27;20048;-77
2022/06/11 12:46:16;;;;;;;12.60;2.47;;;;;;;;;;5145929;27;20142;-77
2022/06/11 12:48:55;;;;;;;8.65;2.15;;;;;;;;;;5145857;27;20078;-77
2022/06/11 12:51:30;;;;;;;11.55;2.95;;;;;;;;;;5145598;27;20485;-77
2022/06/11 12:53:58;;;;;;;12.05;2.55;;;;;;;;;;5143617;27;20100;-77
2022/06/11 12:56:43;;;;;;;11.43;2.53;;;;;;;;;;5146253;27;20061;-77
2022/06/11 12:59:23;;;;;;;9.85;2.25;;;;;;;;;;5145721;27;20485;-77
2022/06/11 13:02:08;;;;;;;13.80;2.95;;;;;;;;;;5146284;27;20059;-77
2022/06/11 13:05:00;;;;;;;14.35;2.40;;;;;;;;;;5142673;27;20056;-77
2022/06/11 13:07:35;;;;;;;12.05;2.45;;;;;;;;;;5144163;27;20090;-77
2022/06/11 13:10:10;;;;;;;12.38;2.42;;;;;;;;;;5163790;27;20678;-77
2022/06/11 13:12:57;;;;;;;10.07;2.47;;;;;;;;;;5142515;27;20055;-77
2022/06/11 13:15:24;;;;;;;10.10;2.65;;;;;;;;;;5124342;27;20163;-77
2022/06/11 13:17:57;;;;;;;15.32;2.70;;;;;;;;;;5145806;27;20055;-77
2022/06/11 13:20:26;;;;;;;8.05;1.88;;;;;;;;;;5145015;27;20126;-77
2022/06/11 13:23:11;;;;;;;8.80;2.22;;;;;;;;;;5145446;27;20053;-77
2022/06/11 13:25:58;;;;;;;7.75;1.80;;;;;;;;;;5167042;27;20054;-77
2022/06/11 13:28:30;;;;;;;9.35;1.90;;;;;;;;;;5099346;27;20098;-77
2022/06/11 13:31:13;;;;;;;8.57;1.70;;;;;;;;;;5145346;27;20055;-77
2022/06/11 13:33:45;;;;;;;10.95;1.90;;;;;;;;;;5147104;27;20926;-77
2022/06/11 13:36:11;;;;;;;10.90;2.05;;;;;;;;;;5144374;27;20055;-77
2022/06/11 13:38:44;;;;;;;10.50;1.83;;;;;;;;;;5146155;27;20112;-77
2022/06/11 13:41:15;;;;;;;6.65;1.95;;;;;;;;;;5131439;27;20055;-76
2022/06/11 13:43:47;;;;;;;11.38;1.77;;;;;;;;;;5144983;27;20054;-76
2022/06/11 13:46:19;;;;;;;8.70;1.92;;;;;;;;;;5165890;27;20572;-77
2022/06/11 13:49:04;;;;;;;8.70;1.92;;;;;;;;;;5148198;27;20059;-77
2022/06/11 13:51:31;;;;;;;10.93;2.10;;;;;;;;;;5144928;27;20057;-77
2022/06/11 13:57:18;;;;;;;11.13;2.47;;;;;;;;;;5145011;27;20059;-77
2022/06/11 13:59:57;;;;;;;9.40;2.03;;;;;;;;;;5154678;27;20049;-76
2022/06/11 14:02:42;;;;;;;10.38;2.05;;;;;;;;;;5165690;27;20555;-77
2022/06/11 14:05:15;;;;;;;9.32;2.10;;;;;;;;;;5166386;27;20047;-77
2022/06/11 14:07:42;;;;;;;10.38;2.20;;;;;;;;;;5134207;27;20137;-77
2022/06/11 14:10:47;;;;;;;10.18;2.10;;;;;;;;;;5143178;27;20062;-77
2022/06/11 14:13:14;;;;;;;10.82;2.35;;;;;;;;;;5166154;27;20617;-77
2022/06/11 14:15:41;;;;;;;8.32;1.90;;;;;;;;;;5147147;27;20552;-76
2022/06/11 14:18:20;;;;;;;10.35;2.40;;;;;;;;;;5164493;27;20062;-77
2022/06/11 14:20:54;;;;;;;7.03;2.05;;;;;;;;;;5126330;27;20205;-77
2022/06/11 14:23:20;;;;;;;9.50;2.17;;;;;;;;;;5143398;27;20075;-77
2022/06/11 14:25:48;;;;;;;10.40;2.13;;;;;;;;;;5172138;27;20496;-77
2022/06/11 14:28:14;;;;;;;12.27;2.50;;;;;;;;;;5146786;27;20543;-77
2022/06/11 14:31:00;;;;;;;10.48;2.22;;;;;;;;;;5148297;27;20267;-77
2022/06/11 14:33:32;;;;;;;9.60;2.13;;;;;;;;;;5135744;27;20069;-77
2022/06/11 14:36:16;;;;;;;10.52;1.98;;;;;;;;;;5148152;27;20126;-77
2022/06/11 14:38:51;;;;;;;8.93;2.22;;;;;;;;;;5147768;27;20087;-77
2022/06/11 14:41:20;;;;;;;9.43;1.88;;;;;;;;;;5129803;27;20437;-77
2022/06/11 14:43:57;;;;;;;10.80;2.10;;;;;;;;;;5148002;27;20468;-76
2022/06/11 14:46:33;;;;;;;9.93;1.80;;;;;;;;;;5151756;27;20493;-77
2022/06/11 14:49:00;;;;;;;8.10;2.20;;;;;;;;;;5168123;27;20066;-77
2022/06/11 14:51:28;;;;;;;7.18;1.50;;;;;;;;;;5168552;27;20505;-77
2022/06/11 14:54:07;;;;;;;11.27;2.00;;;;;;;;;;5138046;27;20521;-77
2022/06/11 14:56:40;;;;;;;7.18;1.90;;;;;;;;;;5147925;27;20066;-77
2022/06/11 14:59:07;;;;;;;11.25;1.77;;;;;;;;;;5159045;27;20059;-76
2022/06/11 15:01:45;;;;;;;7.68;1.70;;;;;;;;;;5147070;27;20051;-77
2022/06/11 15:04:27;;;;;;;11.70;2.00;;;;;;;;;;5144844;27;20066;-77